createdAt,value
2023-12-11T00:01:13.146Z,8.30
2023-12-11T00:03:41.332Z,8.40
2023-12-11T00:06:10.024Z,8.30
2023-12-11T00:08:39.649Z,8.30
2023-12-11T00:11:10.101Z,8.30
2023-12-11T00:13:38.496Z,8.30
2023-12-11T00:16:07.301Z,8.20
2023-12-11T00:18:35.823Z,8.20
2023-12-11T00:21:04.062Z,8.20
2023-12-11T00:23:32.508Z,8.20
2023-12-11T00:26:01.891Z,8.10
2023-12-11T00:28:30.236Z,8.10
2023-12-11T00:30:58.346Z,8.10
2023-12-11T00:33:26.430Z,8.20
2023-12-11T00:35:54.504Z,8.20
2023-12-11T00:38:22.512Z,8.20
2023-12-11T00:40:51.606Z,8.20
2023-12-11T00:43:21.010Z,8.40
2023-12-11T00:45:49.072Z,8.40
2023-12-11T00:48:17.197Z,8.60
2023-12-11T00:50:45.252Z,8.50
2023-12-11T00:53:13.292Z,8.50
2023-12-11T00:55:41.334Z,8.50
2023-12-11T00:58:10.144Z,8.50
2023-12-11T01:00:39.584Z,8.50
2023-12-11T01:03:07.698Z,8.40
2023-12-11T01:05:36.121Z,8.40
2023-12-11T01:08:04.157Z,8.40
2023-12-11T01:10:32.300Z,8.40
2023-12-11T01:13:00.392Z,8.50
2023-12-11T01:15:28.479Z,8.40
2023-12-11T01:17:58.134Z,8.40
2023-12-11T01:20:26.244Z,8.40
2023-12-11T01:22:54.504Z,8.40
2023-12-11T01:25:22.648Z,8.40
2023-12-11T01:27:50.687Z,8.40
2023-12-11T01:30:18.777Z,8.40
2023-12-11T01:32:46.916Z,8.40
2023-12-11T01:35:16.527Z,8.40
2023-12-11T01:37:45.062Z,8.40
2023-12-11T01:40:13.985Z,8.30
2023-12-11T01:42:42.160Z,8.30
2023-12-11T01:45:11.333Z,8.40
2023-12-11T01:47:39.576Z,8.30
2023-12-11T01:50:09.219Z,8.30
2023-12-11T01:52:39.714Z,8.30
2023-12-11T01:55:08.974Z,8.20
2023-12-11T01:57:37.429Z,8.20
2023-12-11T02:00:07.165Z,8.20
2023-12-11T02:02:36.312Z,8.20
2023-12-11T02:05:05.546Z,8.20
2023-12-11T02:07:33.663Z,8.20
2023-12-11T02:10:03.153Z,8.20
2023-12-11T02:12:31.232Z,8.20
2023-12-11T02:14:59.310Z,8.30
2023-12-11T02:17:27.467Z,8.30
2023-12-11T02:19:55.729Z,8.30
2023-12-11T02:22:25.409Z,8.30
2023-12-11T02:25:00.763Z,8.20
2023-12-11T02:27:31.017Z,8.30
2023-12-11T02:29:59.282Z,8.30
2023-12-11T02:32:27.348Z,8.30
2023-12-11T02:34:55.739Z,8.30
2023-12-11T02:37:24.293Z,8.30
2023-12-11T02:39:52.455Z,8.30
2023-12-11T02:42:20.528Z,8.30
2023-12-11T02:44:49.860Z,8.30
2023-12-11T02:47:18.207Z,8.20
2023-12-11T02:49:46.282Z,8.30
2023-12-11T02:52:15.035Z,8.30
2023-12-11T02:54:43.116Z,8.30
2023-12-11T02:57:11.630Z,8.30
2023-12-11T02:59:39.659Z,8.30
2023-12-11T03:02:09.021Z,8.30
2023-12-11T03:04:37.152Z,8.30
2023-12-11T03:07:05.518Z,8.40
2023-12-11T03:09:33.581Z,8.30
2023-12-11T03:12:01.671Z,8.40
2023-12-11T03:14:29.683Z,8.30
2023-12-11T03:16:57.698Z,8.30
2023-12-11T03:19:27.132Z,8.30
2023-12-11T03:21:57.307Z,8.30
2023-12-11T03:24:25.969Z,8.30
2023-12-11T03:26:54.006Z,8.30
2023-12-11T03:29:22.646Z,8.30
2023-12-11T03:31:50.704Z,8.30
2023-12-11T03:34:18.817Z,8.20
2023-12-11T03:36:48.350Z,8.30
2023-12-11T03:39:16.543Z,8.40
2023-12-11T03:41:45.484Z,8.40
2023-12-11T03:44:13.854Z,8.40
2023-12-11T03:46:41.882Z,8.40
2023-12-11T03:49:10.037Z,8.30
2023-12-11T03:51:38.110Z,8.30
2023-12-11T03:54:07.533Z,8.30
2023-12-11T03:56:35.575Z,8.30
2023-12-11T03:59:03.701Z,8.30
2023-12-11T04:01:31.865Z,8.30
2023-12-11T04:04:01.969Z,8.30
2023-12-11T04:06:30.064Z,8.30
2023-12-11T04:08:58.229Z,8.30
2023-12-11T04:11:27.961Z,8.30
2023-12-11T04:13:56.490Z,8.30
2023-12-11T04:16:25.054Z,8.30
2023-12-11T04:18:53.935Z,8.30
2023-12-11T04:21:23.320Z,8.30
2023-12-11T04:23:51.337Z,8.30
2023-12-11T04:26:19.401Z,8.30
2023-12-11T04:28:48.756Z,8.30
2023-12-11T04:31:16.873Z,8.30
2023-12-11T04:33:45.103Z,8.20
2023-12-11T04:36:13.688Z,8.30
2023-12-11T04:38:41.709Z,8.20
2023-12-11T04:41:09.769Z,8.30
2023-12-11T04:43:38.211Z,8.30
2023-12-11T04:46:08.014Z,8.40
2023-12-11T04:48:36.597Z,8.20
2023-12-11T04:51:05.953Z,8.30
2023-12-11T04:53:34.031Z,8.30
2023-12-11T04:56:07.729Z,8.30
2023-12-11T04:58:35.977Z,8.20
2023-12-11T05:01:04.821Z,8.80
2023-12-11T05:03:34.677Z,8.20
2023-12-11T05:06:03.035Z,8.20
2023-12-11T05:08:31.132Z,8.20
2023-12-11T05:10:59.204Z,8.20
2023-12-11T05:13:27.315Z,8.20
2023-12-11T05:15:56.250Z,8.20
2023-12-11T05:18:24.805Z,8.10
2023-12-11T05:20:54.227Z,8.10
2023-12-11T05:23:22.902Z,8.10
2023-12-11T05:25:50.957Z,8.20
2023-12-11T05:28:19.041Z,8.10
2023-12-11T05:30:47.097Z,8.10
2023-12-11T05:33:15.231Z,8.20
2023-12-11T05:35:42.407Z,8.20
2023-12-11T05:38:11.948Z,8.20
2023-12-11T05:40:40.822Z,8.20
2023-12-11T05:43:08.994Z,8.20
2023-12-11T05:45:37.535Z,8.20
2023-12-11T05:48:06.443Z,8.20
2023-12-11T05:50:35.303Z,8.20
2023-12-11T05:53:04.108Z,8.30
2023-12-11T05:55:33.867Z,8.30
2023-12-11T05:58:01.963Z,8.30
2023-12-11T06:00:30.156Z,8.20
2023-12-11T06:02:58.392Z,8.20
2023-12-11T06:05:26.946Z,8.50
2023-12-11T06:07:55.080Z,8.20
2023-12-11T06:10:23.152Z,8.20
2023-12-11T06:12:52.585Z,8.20
2023-12-11T06:15:20.858Z,8.20
2023-12-11T06:17:49.113Z,8.20
2023-12-11T06:20:17.399Z,8.20
2023-12-11T06:22:48.216Z,8.20
2023-12-11T06:25:16.486Z,8.30
2023-12-11T06:27:44.664Z,8.20
2023-12-11T06:30:14.942Z,8.30
2023-12-11T06:32:43.484Z,8.30
2023-12-11T06:35:11.643Z,8.30
2023-12-11T06:37:39.752Z,8.40
2023-12-11T06:40:10.187Z,8.40
2023-12-11T06:42:39.534Z,8.30
2023-12-11T06:45:09.746Z,8.30
2023-12-11T06:47:39.517Z,8.30
2023-12-11T06:50:08.615Z,8.30
2023-12-11T06:52:36.788Z,8.30
2023-12-11T06:55:05.510Z,8.20
2023-12-11T06:57:33.620Z,8.20
2023-12-11T07:00:03.398Z,8.20
2023-12-11T07:02:32.262Z,8.10
2023-12-11T07:05:01.957Z,8.40
2023-12-11T07:07:30.321Z,8.20
2023-12-11T07:10:04.986Z,8.20
2023-12-11T07:12:33.176Z,8.20
2023-12-11T07:15:01.591Z,8.10
2023-12-11T07:17:31.704Z,8.10
2023-12-11T07:20:02.596Z,8.10
2023-12-11T07:22:31.985Z,8.10
2023-12-11T07:25:00.221Z,8.10
2023-12-11T07:27:28.741Z,8.10
2023-12-11T07:29:56.975Z,8.10
2023-12-11T07:32:25.453Z,8.10
2023-12-11T07:34:53.689Z,8.10
2023-12-11T07:37:23.276Z,8.20
2023-12-11T07:39:51.447Z,8.10
2023-12-11T07:42:19.565Z,8.10
2023-12-11T07:44:47.727Z,8.20
2023-12-11T07:47:15.849Z,8.10
2023-12-11T07:49:43.950Z,8.10
2023-12-11T07:52:12.112Z,8.20
2023-12-11T07:54:42.251Z,8.20
2023-12-11T07:57:10.311Z,8.20
2023-12-11T07:59:38.809Z,8.20
2023-12-11T08:02:06.948Z,8.30
2023-12-11T08:04:39.834Z,8.20
2023-12-11T08:07:08.008Z,8.40
2023-12-11T08:09:38.234Z,8.40
2023-12-11T08:12:08.442Z,8.30
2023-12-11T08:14:39.519Z,8.30
2023-12-11T08:17:08.345Z,8.30
2023-12-11T08:19:36.610Z,8.30
2023-12-11T08:22:05.441Z,8.30
2023-12-11T08:24:33.600Z,8.20
2023-12-11T08:27:01.744Z,8.30
2023-12-11T08:29:31.176Z,8.30
2023-12-11T08:32:00.867Z,8.30
2023-12-11T08:34:28.983Z,8.30
2023-12-11T08:36:57.727Z,8.30
2023-12-11T08:39:26.194Z,8.30
2023-12-11T08:41:54.481Z,8.30
2023-12-11T08:44:22.582Z,8.30
2023-12-11T08:46:52.086Z,8.20
2023-12-11T08:49:20.263Z,8.30
2023-12-11T08:51:48.680Z,8.60
2023-12-11T08:54:16.714Z,8.20
2023-12-11T08:56:44.777Z,8.20
2023-12-11T08:59:13.001Z,8.20
2023-12-11T09:01:41.172Z,8.20
2023-12-11T09:04:11.076Z,8.20
2023-12-11T09:06:39.202Z,8.20
2023-12-11T09:09:08.410Z,8.20
2023-12-11T09:11:36.446Z,8.50
2023-12-11T09:14:04.496Z,8.50
2023-12-11T09:16:32.535Z,8.40
2023-12-11T09:19:00.744Z,8.40
2023-12-11T09:21:30.160Z,8.40
2023-12-11T09:23:58.192Z,8.40
2023-12-11T09:26:26.234Z,8.40
2023-12-11T09:28:54.324Z,8.50
2023-12-11T09:31:22.479Z,8.50
2023-12-11T09:33:50.794Z,8.60
2023-12-11T09:36:20.319Z,8.60
2023-12-11T09:38:49.723Z,8.60
2023-12-11T09:41:17.822Z,8.70
2023-12-11T09:43:46.721Z,8.70
2023-12-11T09:46:17.291Z,8.80
2023-12-11T09:48:45.644Z,8.80
2023-12-11T09:51:16.307Z,8.90
2023-12-11T09:53:45.110Z,8.90
2023-12-11T09:56:14.946Z,8.90
2023-12-11T09:58:44.778Z,9.00
2023-12-11T10:01:14.362Z,9.10
2023-12-11T10:03:42.612Z,9.20
2023-12-11T10:06:10.883Z,9.20
2023-12-11T10:08:43.837Z,9.20
2023-12-11T10:11:14.630Z,9.30
2023-12-11T10:13:42.922Z,9.40
2023-12-11T10:16:30.576Z,9.50
2023-12-11T10:18:59.375Z,9.60
2023-12-11T10:21:35.968Z,9.50
2023-12-11T10:24:05.131Z,9.60
2023-12-11T10:26:39.860Z,9.60
2023-12-11T10:29:24.261Z,9.50
2023-12-11T10:31:52.855Z,9.50
2023-12-11T10:34:40.825Z,9.60
2023-12-11T10:37:09.761Z,9.50
2023-12-11T10:39:37.891Z,9.50
2023-12-11T10:42:18.242Z,9.60
2023-12-11T10:44:50.352Z,9.60
2023-12-11T10:47:22.295Z,9.60
2023-12-11T10:49:51.262Z,9.60
2023-12-11T10:52:19.507Z,9.80
2023-12-11T10:54:47.733Z,9.70
2023-12-11T10:57:18.822Z,9.70
2023-12-11T10:59:47.140Z,9.70
2023-12-11T11:02:17.842Z,9.60
2023-12-11T11:04:47.472Z,9.70
2023-12-11T11:07:22.136Z,9.60
2023-12-11T11:09:59.795Z,9.60
2023-12-11T11:12:38.751Z,9.60
2023-12-11T11:15:10.269Z,9.60
2023-12-11T11:18:01.126Z,9.60
2023-12-11T11:20:30.293Z,9.50
2023-12-11T11:23:22.906Z,9.60
2023-12-11T11:25:54.687Z,9.50
2023-12-11T11:28:40.143Z,9.40
2023-12-11T11:31:18.880Z,9.30
2023-12-11T11:33:53.837Z,9.20
2023-12-11T11:36:42.785Z,9.10
2023-12-11T11:39:11.693Z,9.10
2023-12-11T11:41:40.643Z,9.00
2023-12-11T11:44:11.562Z,9.00
2023-12-11T11:46:53.257Z,9.00
2023-12-11T11:49:28.978Z,9.00
2023-12-11T11:51:58.008Z,8.90
2023-12-11T11:54:26.605Z,8.90
2023-12-11T11:56:55.534Z,8.90
2023-12-11T11:59:26.066Z,8.90
2023-12-11T12:01:55.159Z,8.90
2023-12-11T12:04:27.890Z,8.90
2023-12-11T12:06:59.740Z,8.90
2023-12-11T12:09:27.907Z,9.20
2023-12-11T12:11:56.314Z,8.90
2023-12-11T12:14:26.753Z,8.90
2023-12-11T12:16:56.160Z,8.90
2023-12-11T12:19:34.820Z,9.00
2023-12-11T12:22:04.151Z,9.00
2023-12-11T12:24:32.916Z,9.00
2023-12-11T12:27:04.616Z,9.00
2023-12-11T12:29:36.085Z,9.30
2023-12-11T12:32:05.201Z,9.20
2023-12-11T12:34:36.495Z,9.00
2023-12-11T12:37:06.896Z,9.00
2023-12-11T12:39:36.386Z,9.00
2023-12-11T12:42:04.836Z,9.00
2023-12-11T12:44:40.808Z,9.00
2023-12-11T12:47:10.995Z,8.90
2023-12-11T12:49:39.482Z,8.90
2023-12-11T12:52:07.922Z,8.90
2023-12-11T12:54:49.408Z,8.80
2023-12-11T12:57:18.355Z,9.10
2023-12-11T12:59:48.147Z,8.80
2023-12-11T13:02:17.986Z,8.70
2023-12-11T13:04:53.105Z,8.70
2023-12-11T13:07:23.302Z,8.60
2023-12-11T13:09:52.654Z,8.60
2023-12-11T13:12:22.155Z,8.60
2023-12-11T13:14:52.199Z,8.60
2023-12-11T13:17:20.680Z,8.60
2023-12-11T13:19:49.023Z,8.60
2023-12-11T13:22:18.167Z,8.60
2023-12-11T13:24:47.092Z,8.60
2023-12-11T13:27:16.213Z,8.60
2023-12-11T13:29:45.215Z,8.60
2023-12-11T13:32:34.954Z,8.90
2023-12-11T13:35:03.729Z,8.70
2023-12-11T13:37:32.120Z,8.70
2023-12-11T13:40:01.404Z,8.80
2023-12-11T13:42:29.490Z,8.70
2023-12-11T13:44:59.876Z,8.70
2023-12-11T13:47:28.276Z,8.60
2023-12-11T13:49:58.144Z,8.60
2023-12-11T13:52:26.651Z,8.50
2023-12-11T13:54:54.763Z,8.50
2023-12-11T13:57:22.975Z,8.50
2023-12-11T13:59:51.039Z,8.50
2023-12-11T14:02:58.016Z,8.50
2023-12-11T14:05:09.512Z,8.50
2023-12-11T14:07:37.757Z,8.50
2023-12-11T14:10:08.800Z,8.50
2023-12-11T14:12:38.535Z,8.50
2023-12-11T14:15:08.641Z,8.50
2023-12-11T14:17:36.839Z,8.50
2023-12-11T14:20:07.525Z,8.50
2023-12-11T14:22:38.609Z,8.50
2023-12-11T14:25:07.775Z,8.40
2023-12-11T14:27:36.548Z,8.50
2023-12-11T14:30:06.303Z,8.50
2023-12-11T14:32:36.366Z,8.50
2023-12-11T14:35:05.726Z,8.40
2023-12-11T14:37:34.369Z,8.40
2023-12-11T14:40:04.445Z,8.50
2023-12-11T14:42:32.610Z,8.50
2023-12-11T14:45:00.850Z,8.50
2023-12-11T14:47:29.426Z,8.40
2023-12-11T14:49:58.983Z,8.40
2023-12-11T14:52:27.578Z,8.50
2023-12-11T14:54:55.889Z,8.40
2023-12-11T14:57:25.421Z,8.40
2023-12-11T14:59:53.570Z,8.40
2023-12-11T15:02:21.724Z,8.30
2023-12-11T15:04:49.810Z,8.30
2023-12-11T15:07:18.279Z,8.30
2023-12-11T15:09:47.469Z,8.30
2023-12-11T15:12:15.750Z,8.30
2023-12-11T15:14:45.668Z,8.30
2023-12-11T15:17:13.843Z,8.40
2023-12-11T15:19:42.513Z,8.20
2023-12-11T15:22:10.885Z,8.30
2023-12-11T15:24:39.006Z,8.30
2023-12-11T15:27:07.960Z,8.20
2023-12-11T15:29:38.443Z,8.20
2023-12-11T15:32:08.905Z,8.20
2023-12-11T15:34:39.348Z,8.20
2023-12-11T15:37:07.813Z,8.20
2023-12-11T15:39:36.071Z,8.30
2023-12-11T15:42:04.713Z,8.20
2023-12-11T15:44:33.125Z,8.20
2023-12-11T15:47:01.337Z,8.20
2023-12-11T15:49:31.014Z,8.20
2023-12-11T15:51:59.346Z,8.20
2023-12-11T15:54:27.899Z,8.20
2023-12-11T15:56:56.233Z,8.10
2023-12-11T15:59:24.453Z,8.10
2023-12-11T16:01:52.760Z,8.10
2023-12-11T16:04:21.127Z,8.10
2023-12-11T16:06:50.975Z,8.00
2023-12-11T16:09:19.632Z,8.60
2023-12-11T16:11:48.850Z,8.00
2023-12-11T16:14:17.086Z,8.00
2023-12-11T16:16:45.690Z,8.00
2023-12-11T16:19:15.198Z,8.50
2023-12-11T16:21:43.648Z,7.90
2023-12-11T16:24:13.878Z,7.90
2023-12-11T16:26:42.092Z,7.90
2023-12-11T16:29:10.237Z,8.10
2023-12-11T16:31:38.517Z,7.90
2023-12-11T16:34:06.955Z,7.90
2023-12-11T16:36:35.226Z,7.90
2023-12-11T16:39:03.545Z,7.90
2023-12-11T16:41:33.242Z,7.80
2023-12-11T16:44:01.477Z,7.80
2023-12-11T16:46:30.106Z,7.80
2023-12-11T16:48:58.391Z,7.80
2023-12-11T16:51:26.712Z,7.70
2023-12-11T16:53:54.922Z,7.70
2023-12-11T16:56:23.090Z,7.70
2023-12-11T16:58:52.699Z,7.70
2023-12-11T17:01:21.013Z,7.70
2023-12-11T17:03:49.644Z,7.60
2023-12-11T17:06:18.400Z,7.60
2023-12-11T17:08:47.235Z,7.60
2023-12-11T17:11:15.679Z,7.60
2023-12-11T17:13:44.311Z,7.60
2023-12-11T17:16:13.984Z,7.60
2023-12-11T17:18:44.407Z,7.60
2023-12-11T17:21:22.105Z,7.60
2023-12-11T17:23:53.933Z,7.50
2023-12-11T17:26:22.760Z,7.80
2023-12-11T17:28:51.457Z,7.50
2023-12-11T17:31:21.165Z,7.50
2023-12-11T17:33:51.680Z,7.50
2023-12-11T17:36:20.041Z,7.50
2023-12-11T17:38:49.316Z,7.50
2023-12-11T17:41:17.643Z,7.50
2023-12-11T17:43:45.915Z,7.50
2023-12-11T17:46:14.937Z,7.50
2023-12-11T17:48:45.406Z,7.50
2023-12-11T17:51:13.908Z,7.90
2023-12-11T17:53:42.089Z,7.40
2023-12-11T17:56:12.355Z,7.90
2023-12-11T17:58:42.454Z,7.40
2023-12-11T18:01:11.349Z,7.60
2023-12-11T18:03:39.709Z,7.40
2023-12-11T18:06:16.107Z,7.40
2023-12-11T18:08:44.627Z,7.40
2023-12-11T18:11:13.412Z,7.40
2023-12-11T18:13:42.368Z,7.40
2023-12-11T18:16:10.742Z,7.40
2023-12-11T18:18:40.155Z,7.60
2023-12-11T18:21:10.076Z,7.40
2023-12-11T18:23:38.874Z,7.40
2023-12-11T18:26:11.736Z,7.40
2023-12-11T18:28:40.063Z,7.50
2023-12-11T18:31:08.423Z,7.40
2023-12-11T18:33:36.759Z,7.50
2023-12-11T18:36:05.532Z,7.40
2023-12-11T18:38:35.417Z,7.50
2023-12-11T18:41:04.157Z,7.40
2023-12-11T18:43:32.440Z,7.50
2023-12-11T18:46:00.742Z,7.40
2023-12-11T18:48:29.429Z,7.40
2023-12-11T18:50:57.785Z,7.40
2023-12-11T18:53:25.961Z,7.40
2023-12-11T18:55:59.976Z,7.40
2023-12-11T18:58:29.402Z,7.40
2023-12-11T19:00:58.110Z,7.40
2023-12-11T19:03:26.446Z,7.40
2023-12-11T19:05:54.706Z,7.40
2023-12-11T19:08:23.271Z,7.40
2023-12-11T19:10:51.500Z,7.40
2023-12-11T19:13:21.122Z,7.40
2023-12-11T19:15:49.511Z,7.40
2023-12-11T19:18:18.092Z,7.50
2023-12-11T19:20:46.824Z,7.40
2023-12-11T19:23:14.998Z,7.40
2023-12-11T19:25:43.853Z,7.40
2023-12-11T19:28:12.143Z,7.40
2023-12-11T19:30:42.140Z,7.40
2023-12-11T19:33:10.548Z,7.50
2023-12-11T19:35:38.920Z,7.40
2023-12-11T19:38:07.242Z,7.50
2023-12-11T19:40:35.560Z,7.50
2023-12-11T19:43:03.831Z,7.50
2023-12-11T19:45:33.184Z,7.40
2023-12-11T19:48:03.231Z,7.40
2023-12-11T19:50:32.129Z,7.40
2023-12-11T19:53:00.420Z,7.40
2023-12-11T19:55:28.700Z,7.40
2023-12-11T19:57:57.036Z,7.40
2023-12-11T20:00:25.780Z,7.30
2023-12-11T20:02:53.992Z,7.30
2023-12-11T20:05:23.749Z,7.30
2023-12-11T20:07:51.963Z,7.30
2023-12-11T20:10:20.191Z,7.30
2023-12-11T20:12:48.813Z,7.30
2023-12-11T20:15:17.042Z,7.30
2023-12-11T20:17:45.708Z,7.30
2023-12-11T20:20:14.108Z,7.30
2023-12-11T20:22:45.164Z,7.30
2023-12-11T20:25:14.240Z,7.20
2023-12-11T20:27:42.578Z,7.20
2023-12-11T20:30:11.628Z,7.20
2023-12-11T20:32:40.046Z,7.20
2023-12-11T20:35:09.059Z,7.20
2023-12-11T20:37:38.870Z,7.20
2023-12-11T20:40:10.690Z,7.20
2023-12-11T20:42:39.692Z,7.20
2023-12-11T20:45:08.719Z,7.20
2023-12-11T20:47:37.178Z,7.20
2023-12-11T20:50:06.245Z,7.40
2023-12-11T20:52:34.583Z,7.00
2023-12-11T20:55:03.163Z,7.00
2023-12-11T20:57:33.504Z,7.00
2023-12-11T21:00:06.852Z,6.90
2023-12-11T21:02:35.618Z,6.90
2023-12-11T21:05:03.945Z,6.90
2023-12-11T21:07:32.820Z,7.20
2023-12-11T21:10:01.281Z,6.80
2023-12-11T21:12:29.540Z,6.90
2023-12-11T21:14:59.135Z,6.90
2023-12-11T21:17:27.484Z,6.90
2023-12-11T21:19:55.856Z,6.90
2023-12-11T21:22:24.107Z,6.90
2023-12-11T21:24:52.409Z,7.00
2023-12-11T21:27:21.009Z,6.90
2023-12-11T21:29:49.322Z,6.90
2023-12-11T21:32:19.428Z,7.00
2023-12-11T21:34:47.788Z,6.90
2023-12-11T21:37:16.133Z,6.90
2023-12-11T21:39:44.346Z,6.90
2023-12-11T21:42:12.509Z,6.80
2023-12-11T21:44:41.105Z,6.80
2023-12-11T21:47:09.314Z,6.80
2023-12-11T21:49:38.986Z,6.80
2023-12-11T21:52:07.902Z,7.00
2023-12-11T21:54:37.372Z,6.90
2023-12-11T21:57:05.555Z,6.80
2023-12-11T21:59:39.664Z,6.80
2023-12-11T22:02:13.837Z,6.80
2023-12-11T22:04:43.777Z,6.80
2023-12-11T22:07:14.137Z,6.80
2023-12-11T22:09:43.922Z,6.70
2023-12-11T22:12:12.118Z,7.00
2023-12-11T22:14:40.268Z,6.70
2023-12-11T22:17:08.490Z,6.60
2023-12-11T22:19:36.853Z,6.60
2023-12-11T22:22:06.717Z,6.60
2023-12-11T22:24:35.039Z,6.50
2023-12-11T22:27:03.928Z,6.50
2023-12-11T22:29:32.458Z,6.50
2023-12-11T22:32:01.442Z,6.50
2023-12-11T22:34:29.957Z,6.50
2023-12-11T22:36:58.322Z,6.50
2023-12-11T22:39:29.696Z,6.40
2023-12-11T22:41:57.975Z,6.40
2023-12-11T22:44:26.188Z,6.40
2023-12-11T22:46:54.488Z,6.50
2023-12-11T22:49:22.770Z,6.50
2023-12-11T22:51:51.077Z,6.50
2023-12-11T22:54:19.321Z,6.50
2023-12-11T22:56:49.088Z,6.50
2023-12-11T22:59:17.396Z,6.60
2023-12-11T23:01:46.061Z,6.60
2023-12-11T23:04:14.592Z,6.60
2023-12-11T23:06:43.314Z,6.60
2023-12-11T23:09:12.904Z,6.60
2023-12-11T23:11:41.182Z,6.60
2023-12-11T23:14:10.951Z,6.70
2023-12-11T23:16:39.267Z,6.70
2023-12-11T23:19:07.544Z,6.70
2023-12-11T23:21:35.821Z,6.70
2023-12-11T23:24:04.102Z,6.70
2023-12-11T23:26:32.228Z,6.70
2023-12-11T23:29:00.316Z,6.70
2023-12-11T23:31:29.882Z,6.70
2023-12-11T23:33:58.119Z,6.70
2023-12-11T23:36:26.344Z,6.70
2023-12-11T23:38:54.958Z,6.70
2023-12-11T23:41:23.345Z,6.70
2023-12-11T23:43:52.047Z,6.70
2023-12-11T23:46:20.506Z,6.70
2023-12-11T23:48:50.206Z,6.70
2023-12-11T23:51:18.427Z,6.70
2023-12-11T23:53:46.589Z,6.70
2023-12-11T23:56:14.770Z,6.70
2023-12-11T23:58:42.875Z,6.70
